Time;durP1;ratioP1;P1;durP2;ratioP2;P2;SDS_P1;SDS_P2;PMS_P1;PMS_P2;Temp;Humidity;BMP_temperature;BMP_pressure;BME280_temperature;BME280_humidity;BME280_pressure;Samples;Min_cycle;Max_cycle;Signal;HPM_P1;HPM_P2
2023/05/26 00:00:58;;;;;;;12.30;6.90;;;16.20;1.00;;;;;;5006297;28;20189;-74
2023/05/26 00:03:27;;;;;;;12.30;7.27;;;16.20;1.00;;;;;;5005803;28;20194;-72
2023/05/26 00:05:54;;;;;;;12.30;6.57;;;16.10;1.00;;;;;;5007788;28;20668;-75
2023/05/26 00:08:19;;;;;;;13.70;7.07;;;16.10;1.00;;;;;;5005777;28;20437;-76
2023/05/26 00:10:45;;;;;;;9.80;6.93;;;16.10;1.00;;;;;;5004126;28;20500;-75
2023/05/26 00:13:10;;;;;;;13.60;7.00;;;16.00;1.00;;;;;;5006518;28;20668;-75
2023/05/26 00:15:36;;;;;;;14.47;6.97;;;16.00;1.00;;;;;;5008048;28;20195;-73
2023/05/26 00:18:01;;;;;;;10.57;6.63;;;16.00;1.00;;;;;;5006920;28;20261;-75
2023/05/26 00:20:27;;;;;;;16.73;7.33;;;15.90;1.00;;;;;;5007685;28;20209;-74
2023/05/26 00:22:53;;;;;;;12.33;6.60;;;15.90;1.00;;;;;;5007001;28;20186;-74
2023/05/26 00:25:18;;;;;;;10.83;7.03;;;15.90;1.00;;;;;;5007762;28;20182;-74
2023/05/26 00:27:44;;;;;;;13.17;6.90;;;15.80;1.00;;;;;;5006992;28;20195;-72
2023/05/26 00:30:10;;;;;;;9.10;6.50;;;15.70;1.00;;;;;;5006807;28;20239;-75
2023/05/26 00:32:35;;;;;;;12.03;6.30;;;15.70;1.00;;;;;;5006893;28;20182;-75
2023/05/26 00:35:01;;;;;;;12.03;6.70;;;15.70;1.00;;;;;;5006267;28;20438;-75
2023/05/26 00:37:27;;;;;;;14.70;6.40;;;15.60;1.00;;;;;;5007713;28;20190;-75
2023/05/26 00:39:52;;;;;;;9.23;6.50;;;15.50;1.00;;;;;;5007175;28;20202;-75
2023/05/26 00:42:18;;;;;;;11.00;6.83;;;15.50;1.00;;;;;;5005514;28;20645;-74
2023/05/26 00:44:43;;;;;;;11.70;6.43;;;15.50;1.00;;;;;;5007966;28;20270;-74
2023/05/26 00:47:09;;;;;;;14.47;6.63;;;15.40;1.00;;;;;;5008257;28;20285;-75
2023/05/26 00:49:34;;;;;;;11.60;7.27;;;15.40;1.00;;;;;;5008844;28;20253;-75
2023/05/26 00:52:01;;;;;;;10.97;6.83;;;15.20;1.00;;;;;;5005969;28;20773;-75
2023/05/26 00:54:26;;;;;;;9.13;6.90;;;15.20;1.00;;;;;;5007561;28;20218;-75
2023/05/26 00:56:54;;;;;;;11.33;6.87;;;15.10;1.00;;;;;;5004588;28;20472;-74
2023/05/26 00:59:20;;;;;;;10.47;6.83;;;15.10;1.00;;;;;;5007299;28;20204;-74
2023/05/26 01:01:45;;;;;;;13.87;7.57;;;15.10;1.00;;;;;;5006320;28;20441;-73
2023/05/26 01:04:12;;;;;;;10.73;6.90;;;14.90;1.00;;;;;;5008147;28;20632;-75
2023/05/26 01:06:38;;;;;;;11.27;7.40;;;14.90;1.00;;;;;;5012463;28;20186;-75
2023/05/26 01:09:03;;;;;;;9.30;6.40;;;14.90;1.00;;;;;;5011096;28;20472;-75
2023/05/26 01:11:44;;;;;;;10.40;7.00;;;14.90;1.00;;;;;;5011926;28;20720;-74
2023/05/26 01:14:28;;;;;;;13.43;7.10;;;14.90;1.00;;;;;;5011399;28;20277;-74
2023/05/26 01:16:59;;;;;;;11.40;6.60;;;14.80;1.00;;;;;;5011358;28;20876;-75
2023/05/26 01:19:37;;;;;;;11.37;6.90;;;14.80;1.00;;;;;;5011779;28;20464;-75
2023/05/26 01:22:26;;;;;;;15.30;7.07;;;14.70;1.00;;;;;;5010758;28;20429;-75
2023/05/26 01:25:15;;;;;;;12.10;7.03;;;14.70;1.00;;;;;;5011034;28;20983;-76
2023/05/26 01:27:46;;;;;;;9.70;7.20;;;14.70;1.00;;;;;;5011401;28;20473;-76
2023/05/26 01:30:13;;;;;;;9.40;6.93;;;14.60;1.00;;;;;;5002403;28;20476;-75
2023/05/26 01:32:46;;;;;;;12.43;7.30;;;14.60;1.00;;;;;;5010833;28;20441;-75
2023/05/26 01:35:12;;;;;;;11.93;7.00;;;14.60;1.00;;;;;;5011008;28;20429;-75
2023/05/26 01:37:37;;;;;;;11.13;7.50;;;14.50;1.00;;;;;;5011152;28;20436;-75
2023/05/26 01:40:03;;;;;;;11.77;7.03;;;14.40;1.00;;;;;;5011979;28;20256;-75
2023/05/26 01:42:34;;;;;;;12.47;7.43;;;14.30;1.00;;;;;;5010491;28;20195;-76
2023/05/26 01:45:16;;;;;;;12.20;7.37;;;14.40;1.00;;;;;;5009939;28;20520;-75
2023/05/26 01:47:44;;;;;;;9.40;6.60;;;14.40;1.00;;;;;;5009715;28;20441;-75
2023/05/26 01:50:12;;;;;;;14.07;7.03;;;14.30;1.00;;;;;;5011364;28;20477;-75
2023/05/26 01:52:41;;;;;;;15.23;7.20;;;14.30;1.00;;;;;;5012093;28;20981;-75
2023/05/26 01:55:11;;;;;;;12.27;7.17;;;14.20;1.00;;;;;;5010026;28;20443;-75
2023/05/26 01:57:37;;;;;;;13.50;7.43;;;14.20;1.00;;;;;;5007311;28;20441;-75
2023/05/26 02:00:03;;;;;;;15.93;7.70;;;14.20;1.00;;;;;;5008797;28;20488;-75
2023/05/26 02:02:29;;;;;;;13.17;7.67;;;14.20;1.00;;;;;;5011682;28;20484;-75
2023/05/26 02:04:55;;;;;;;14.70;8.03;;;14.10;1.00;;;;;;5009356;28;20449;-75
2023/05/26 02:07:21;;;;;;;9.90;7.60;;;14.10;1.00;;;;;;5011720;28;20594;-75
2023/05/26 02:09:46;;;;;;;12.73;7.60;;;14.10;1.00;;;;;;5010321;28;20519;-75
2023/05/26 02:12:13;;;;;;;12.23;8.20;;;14.10;1.00;;;;;;5010240;28;20184;-75
2023/05/26 02:14:38;;;;;;;12.70;7.67;;;14.00;1.00;;;;;;5011504;28;20183;-75
2023/05/26 02:17:04;;;;;;;14.07;8.37;;;14.00;1.00;;;;;;5009569;28;20457;-75
2023/05/26 02:19:30;;;;;;;12.77;7.47;;;14.00;1.00;;;;;;5011667;28;20217;-75
2023/05/26 02:21:56;;;;;;;16.90;8.30;;;14.00;1.00;;;;;;5009032;28;20854;-75
2023/05/26 02:24:21;;;;;;;13.00;8.10;;;14.00;1.00;;;;;;5011061;28;20716;-74
2023/05/26 02:26:47;;;;;;;17.33;8.50;;;14.00;1.00;;;;;;5010284;28;20230;-75
2023/05/26 02:29:12;;;;;;;13.90;8.63;;;13.90;1.00;;;;;;5010980;28;20657;-75
2023/05/26 02:31:39;;;;;;;13.30;8.83;;;13.90;1.00;;;;;;5010393;28;20186;-75
2023/05/26 02:34:05;;;;;;;16.57;9.30;;;13.80;1.00;;;;;;5010938;28;20564;-75
2023/05/26 02:36:31;;;;;;;16.00;9.00;;;13.70;1.00;;;;;;5010638;28;20432;-73
2023/05/26 02:38:57;;;;;;;20.20;9.23;;;13.70;1.00;;;;;;5009703;28;20503;-74
2023/05/26 02:41:23;;;;;;;13.13;8.97;;;13.60;1.00;;;;;;5009629;28;20441;-76
2023/05/26 02:43:48;;;;;;;16.23;9.57;;;13.70;1.00;;;;;;5011096;28;20452;-74
2023/05/26 02:46:14;;;;;;;16.47;9.17;;;13.70;1.00;;;;;;5009798;28;20182;-75
2023/05/26 02:48:40;;;;;;;18.13;9.97;;;13.70;1.00;;;;;;5009826;28;20191;-74
2023/05/26 02:51:05;;;;;;;18.17;9.20;;;13.70;1.00;;;;;;5009496;28;20660;-74
2023/05/26 02:53:32;;;;;;;13.00;8.57;;;13.60;1.00;;;;;;5009935;28;20190;-75
2023/05/26 02:55:58;;;;;;;16.47;9.07;;;13.60;1.00;;;;;;5008858;28;20182;-74
2023/05/26 02:58:23;;;;;;;16.00;8.83;;;13.50;1.00;;;;;;5010837;28;20427;-74
2023/05/26 03:00:50;;;;;;;14.37;8.93;;;13.50;1.00;;;;;;5008338;28;20297;-75
2023/05/26 03:03:16;;;;;;;15.03;8.37;;;13.50;1.00;;;;;;5009836;28;20616;-74
2023/05/26 03:05:42;;;;;;;13.37;9.20;;;13.40;1.00;;;;;;5038445;22;20591;-72
2023/05/26 03:08:07;;;;;;;14.57;9.33;;;13.30;1.00;;;;;;5016694;28;20231;-72
2023/05/26 03:10:33;;;;;;;13.40;9.40;;;13.30;1.00;;;;;;5015438;28;20241;-73
2023/05/26 03:12:59;;;;;;;13.97;8.80;;;13.20;1.00;;;;;;5015698;28;20178;-72
2023/05/26 03:15:26;;;;;;;12.63;9.10;;;13.20;1.00;;;;;;5018586;28;20191;-72
2023/05/26 03:17:51;;;;;;;17.77;9.20;;;13.20;1.00;;;;;;5010418;28;20198;-72
2023/05/26 03:20:17;;;;;;;14.07;8.50;;;13.20;1.00;;;;;;5013101;28;21063;-73
2023/05/26 03:22:42;;;;;;;19.33;9.27;;;13.20;1.00;;;;;;5015143;28;20265;-72
2023/05/26 03:25:08;;;;;;;14.33;8.90;;;13.10;1.00;;;;;;5009272;28;20229;-72
2023/05/26 03:27:37;;;;;;;14.00;9.50;;;13.10;1.00;;;;;;5007867;28;20599;-72
2023/05/26 03:30:04;;;;;;;15.27;9.77;;;13.00;1.00;;;;;;5013245;28;20224;-72
2023/05/26 03:32:29;;;;;;;15.73;9.53;;;13.10;1.00;;;;;;5016367;28;20456;-72
2023/05/26 03:34:55;;;;;;;16.83;9.70;;;13.00;1.00;;;;;;5015263;28;20962;-69
2023/05/26 03:37:20;;;;;;;13.23;9.13;;;13.00;1.00;;;;;;5009485;28;20620;-72
2023/05/26 03:39:46;;;;;;;14.20;8.87;;;12.90;1.00;;;;;;5011476;28;20631;-72
2023/05/26 03:42:11;;;;;;;16.27;9.73;;;12.80;1.00;;;;;;5010696;28;20564;-72
2023/05/26 03:44:37;;;;;;;16.33;10.10;;;12.80;1.00;;;;;;5013297;28;20209;-72
2023/05/26 03:47:03;;;;;;;13.90;9.30;;;12.80;1.00;;;;;;5009120;28;20202;-72
2023/05/26 03:49:28;;;;;;;16.20;8.77;;;12.80;1.00;;;;;;5018793;28;20272;-72
2023/05/26 03:51:54;;;;;;;12.43;9.10;;;12.70;1.00;;;;;;5011523;28;20273;-72
2023/05/26 03:54:19;;;;;;;16.83;10.77;;;12.80;1.00;;;;;;5009140;28;20237;-72
2023/05/26 03:56:45;;;;;;;15.40;9.13;;;12.80;1.00;;;;;;5013771;28;21976;-70
2023/05/26 03:59:10;;;;;;;14.30;9.17;;;12.80;1.00;;;;;;5012632;28;20185;-72
2023/05/26 04:01:36;;;;;;;13.10;8.70;;;12.80;1.00;;;;;;5008041;28;20206;-72
2023/05/26 04:04:02;;;;;;;14.77;9.13;;;12.80;1.00;;;;;;5008670;28;20182;-71
2023/05/26 04:06:28;;;;;;;16.50;9.03;;;12.70;1.00;;;;;;5017043;28;20235;-72
2023/05/26 04:08:54;;;;;;;15.80;9.50;;;12.70;1.00;;;;;;5009852;28;20441;-72
2023/05/26 04:11:21;;;;;;;16.33;9.67;;;12.70;1.00;;;;;;5008689;28;20203;-72
2023/05/26 04:13:46;;;;;;;17.73;9.23;;;12.80;1.00;;;;;;5010124;28;20174;-72
2023/05/26 04:16:12;;;;;;;14.93;8.80;;;12.80;1.00;;;;;;5014109;28;20994;-72
2023/05/26 04:18:39;;;;;;;16.43;9.43;;;12.80;1.00;;;;;;5017185;28;20237;-72
2023/05/26 04:21:05;;;;;;;14.43;9.60;;;12.80;1.00;;;;;;5016930;28;20177;-72
2023/05/26 04:23:31;;;;;;;15.40;9.10;;;12.80;1.00;;;;;;5008528;28;20455;-72
2023/05/26 04:25:56;;;;;;;14.57;8.87;;;12.90;1.00;;;;;;5014765;28;20205;-72
2023/05/26 04:28:24;;;;;;;19.60;9.87;;;14.10;1.00;;;;;;5011331;28;20186;-72
2023/05/26 04:30:49;;;;;;;24.77;10.33;;;12.90;1.00;;;;;;5012468;28;20206;-72
2023/05/26 04:33:15;;;;;;;17.63;9.13;;;12.90;1.00;;;;;;5013908;28;20437;-72
2023/05/26 04:35:41;;;;;;;12.30;9.70;;;12.90;1.00;;;;;;5013630;28;20675;-72
2023/05/26 04:38:07;;;;;;;13.03;8.60;;;13.00;1.00;;;;;;5012154;28;20258;-72
2023/05/26 04:40:32;;;;;;;13.00;8.17;;;13.00;1.00;;;;;;5020724;28;20938;-71
2023/05/26 04:43:00;;;;;;;14.40;8.93;;;13.00;1.00;;;;;;5018618;28;20186;-71
2023/05/26 04:45:25;;;;;;;13.53;9.20;;;13.00;1.00;;;;;;5015743;28;20772;-72
2023/05/26 04:47:51;;;;;;;14.90;8.90;;;13.10;1.00;;;;;;5011855;28;20453;-73
2023/05/26 04:50:16;;;;;;;17.73;9.63;;;13.10;1.00;;;;;;5009844;28;20704;-72
2023/05/26 04:52:42;;;;;;;14.90;9.33;;;13.10;1.00;;;;;;5009064;28;20190;-71
2023/05/26 04:55:08;;;;;;;14.40;9.13;;;13.20;1.00;;;;;;5011160;28;20182;-72
2023/05/26 04:57:34;;;;;;;15.37;9.50;;;13.30;1.00;;;;;;5010838;28;20232;-72
2023/05/26 05:00:00;;;;;;;15.80;9.13;;;13.30;1.00;;;;;;5021128;28;21130;-71
2023/05/26 05:02:26;;;;;;;16.53;8.90;;;13.40;1.00;;;;;;5010186;28;20672;-72
2023/05/26 05:04:52;;;;;;;16.93;9.20;;;13.50;1.00;;;;;;5017655;28;20445;-71
2023/05/26 05:07:18;;;;;;;17.67;9.10;;;13.50;1.00;;;;;;5020687;28;20217;-72
2023/05/26 05:09:44;;;;;;;21.03;9.77;;;13.50;1.00;;;;;;5016602;28;20205;-72
2023/05/26 05:12:09;;;;;;;14.90;10.00;;;13.50;1.00;;;;;;5008225;28;20943;-72
2023/05/26 05:14:35;;;;;;;18.13;9.10;;;13.60;1.00;;;;;;5021373;28;20181;-72
2023/05/26 05:17:01;;;;;;;14.43;9.27;;;13.50;1.00;;;;;;5011697;28;20210;-70
2023/05/26 05:19:26;;;;;;;17.13;9.40;;;13.60;1.00;;;;;;5016321;28;20217;-72
2023/05/26 05:21:52;;;;;;;12.43;9.00;;;13.60;1.00;;;;;;5021109;28;20723;-72
2023/05/26 05:24:17;;;;;;;16.63;9.60;;;13.80;1.00;;;;;;5009442;28;20178;-71
2023/05/26 05:26:43;;;;;;;16.27;9.33;;;13.90;1.00;;;;;;5016255;28;20588;-72
2023/05/26 05:29:08;;;;;;;12.37;8.70;;;13.90;1.00;;;;;;5015982;28;20186;-72
2023/05/26 05:31:34;;;;;;;13.07;9.23;;;14.00;1.00;;;;;;5013503;28;20630;-72
2023/05/26 05:33:59;;;;;;;18.93;9.70;;;16.20;1.00;;;;;;5019892;28;20636;-72
2023/05/26 05:36:25;;;;;;;16.63;9.10;;;14.20;1.00;;;;;;5013010;28;20210;-72
2023/05/26 05:38:51;;;;;;;16.97;9.00;;;14.20;1.00;;;;;;5020317;28;20171;-72
2023/05/26 05:41:17;;;;;;;18.73;9.70;;;14.30;1.00;;;;;;5015492;28;20210;-72
2023/05/26 05:43:42;;;;;;;15.03;9.80;;;14.30;1.00;;;;;;5009774;28;20194;-73
2023/05/26 05:46:08;;;;;;;14.53;9.80;;;14.30;1.00;;;;;;5015300;28;20202;-72
2023/05/26 05:48:33;;;;;;;13.07;9.30;;;14.40;1.00;;;;;;5015006;28;20669;-72
2023/05/26 05:51:00;;;;;;;17.37;9.80;;;14.40;1.00;;;;;;5018794;28;20212;-72
2023/05/26 05:53:25;;;;;;;20.23;9.73;;;14.50;1.00;;;;;;5014278;28;20269;-72
2023/05/26 05:55:51;;;;;;;14.83;9.57;;;14.60;1.00;;;;;;5016836;28;20546;-71
2023/05/26 05:58:16;;;;;;;21.70;9.87;;;14.80;1.00;;;;;;5016769;28;20185;-71
2023/05/26 06:00:42;;;;;;;15.43;10.20;;;15.00;1.00;;;;;;5015533;28;20191;-72
2023/05/26 06:03:07;;;;;;;13.90;10.03;;;15.10;1.00;;;;;;5012679;28;20190;-71
2023/05/26 06:05:33;;;;;;;16.20;10.07;;;15.10;1.00;;;;;;5018584;28;20206;-71
2023/05/26 06:07:58;;;;;;;13.73;9.40;;;15.10;1.00;;;;;;5019728;28;20185;-72
2023/05/26 06:10:24;;;;;;;17.77;11.00;;;15.00;1.00;;;;;;5012825;28;20232;-71
2023/05/26 06:12:49;;;;;;;20.90;10.60;;;15.30;1.00;;;;;;5013205;28;20171;-72
2023/05/26 06:15:18;;;;;;;15.67;9.00;;;15.20;1.00;;;;;;5013809;28;20179;-72
2023/05/26 06:17:43;;;;;;;17.87;9.67;;;15.20;1.00;;;;;;5022370;28;20188;-72
2023/05/26 06:20:09;;;;;;;18.53;9.83;;;15.40;1.00;;;;;;5020411;28;20985;-72
2023/05/26 06:22:36;;;;;;;17.20;10.10;;;15.30;1.00;;;;;;5018384;28;20178;-72
2023/05/26 06:25:03;;;;;;;15.63;10.20;;;15.40;1.00;;;;;;5024467;28;20189;-72
2023/05/26 06:27:28;;;;;;;14.30;10.07;;;15.40;1.00;;;;;;5021384;28;20460;-72
2023/05/26 06:29:54;;;;;;;16.00;10.07;;;15.50;1.00;;;;;;5013040;28;20464;-72
2023/05/26 06:32:20;;;;;;;18.67;10.13;;;15.60;1.00;;;;;;5011190;28;20274;-71
2023/05/26 06:34:47;;;;;;;20.10;10.70;;;15.70;1.00;;;;;;5018792;28;20182;-72
2023/05/26 06:37:12;;;;;;;13.20;9.30;;;15.90;1.00;;;;;;5020357;28;20236;-72
2023/05/26 06:39:38;;;;;;;18.33;11.10;;;15.90;1.00;;;;;;5017340;28;20469;-72
2023/05/26 06:42:04;;;;;;;16.60;10.00;;;16.10;1.00;;;;;;5019934;28;20193;-72
2023/05/26 06:44:29;;;;;;;17.07;10.50;;;16.20;1.00;;;;;;5015156;28;20299;-71
2023/05/26 06:46:55;;;;;;;14.47;10.63;;;16.30;1.00;;;;;;5020870;28;20788;-72
2023/05/26 06:49:20;;;;;;;19.87;10.20;;;16.40;1.00;;;;;;5015646;28;20185;-72
2023/05/26 06:51:46;;;;;;;15.20;10.50;;;16.30;1.00;;;;;;5018916;28;20653;-72
2023/05/26 06:54:11;;;;;;;17.57;10.53;;;16.30;1.00;;;;;;5017435;28;20257;-73
2023/05/26 06:56:37;;;;;;;18.50;12.57;;;16.50;1.00;;;;;;5013686;28;20206;-73
2023/05/26 06:59:03;;;;;;;17.53;11.13;;;16.70;1.00;;;;;;5018432;28;20305;-73
2023/05/26 07:01:28;;;;;;;17.47;10.80;;;16.90;1.00;;;;;;5017400;28;20187;-72
2023/05/26 07:03:54;;;;;;;19.17;10.87;;;17.00;1.00;;;;;;5012723;28;20181;-71
2023/05/26 07:06:19;;;;;;;23.47;11.87;;;17.10;1.00;;;;;;5017480;28;20209;-73
2023/05/26 07:08:45;;;;;;;15.57;10.40;;;17.20;1.00;;;;;;5022567;28;20209;-73
2023/05/26 07:11:10;;;;;;;15.90;11.90;;;17.40;1.00;;;;;;5018959;28;20213;-72
2023/05/26 07:13:36;;;;;;;20.33;12.50;;;17.70;1.00;;;;;;5023899;28;20194;-73
2023/05/26 07:16:01;;;;;;;24.20;12.17;;;17.80;1.00;;;;;;5021338;28;20212;-72
2023/05/26 07:18:27;;;;;;;18.23;11.80;;;17.80;1.00;;;;;;5015530;28;20197;-73
2023/05/26 07:20:52;;;;;;;17.00;11.70;;;18.00;1.00;;;;;;5023372;28;20181;-71
2023/05/26 07:23:18;;;;;;;19.80;12.47;;;18.20;1.00;;;;;;5016568;28;20194;-71
2023/05/26 07:25:43;;;;;;;21.60;12.87;;;18.30;1.00;;;;;;5022373;28;20210;-72
2023/05/26 07:28:09;;;;;;;19.47;11.60;;;18.50;1.00;;;;;;5018285;28;20213;-71
2023/05/26 07:30:35;;;;;;;19.10;10.77;;;18.60;1.00;;;;;;5022726;28;20564;-71
2023/05/26 07:33:00;;;;;;;20.30;11.20;;;18.80;1.00;;;;;;5016432;28;20195;-72
2023/05/26 07:35:26;;;;;;;18.07;11.50;;;19.20;1.00;;;;;;5012009;28;20181;-73
2023/05/26 07:37:51;;;;;;;15.30;10.97;;;19.10;1.00;;;;;;5019014;28;20186;-73
2023/05/26 07:40:17;;;;;;;16.57;11.00;;;19.40;1.00;;;;;;5011590;28;20533;-74
2023/05/26 07:42:43;;;;;;;18.17;10.83;;;19.70;1.00;;;;;;5013937;28;20293;-73
2023/05/26 07:45:09;;;;;;;16.10;10.87;;;20.00;1.00;;;;;;5014403;28;20257;-73
2023/05/26 07:47:35;;;;;;;19.17;11.40;;;20.10;1.00;;;;;;5023690;28;20205;-72
2023/05/26 07:50:01;;;;;;;18.97;10.50;;;20.40;1.00;;;;;;5009750;28;20497;-72
2023/05/26 07:52:27;;;;;;;14.00;9.90;;;20.40;1.00;;;;;;5013320;28;20475;-73
2023/05/26 07:54:52;;;;;;;16.67;9.63;;;20.60;1.00;;;;;;5014389;28;20269;-73
2023/05/26 07:57:18;;;;;;;15.63;9.60;;;20.60;1.00;;;;;;5019007;28;20283;-72
2023/05/26 07:59:44;;;;;;;17.47;10.90;;;20.70;1.00;;;;;;5020231;28;20180;-71
2023/05/26 08:02:12;;;;;;;17.63;10.03;;;20.90;1.00;;;;;;5021384;28;20185;-72
2023/05/26 08:04:38;;;;;;;16.83;10.60;;;21.00;1.00;;;;;;5017210;28;20575;-72
2023/05/26 08:07:04;;;;;;;13.20;9.40;;;21.10;1.00;;;;;;5022129;28;20501;-71
2023/05/26 08:09:30;;;;;;;15.53;9.73;;;21.10;1.00;;;;;;5015997;28;20243;-70
2023/05/26 08:11:55;;;;;;;14.33;10.20;;;21.00;1.00;;;;;;5018264;28;20440;-72
2023/05/26 08:14:23;;;;;;;16.13;9.03;;;21.10;1.00;;;;;;5022963;28;20184;-71
2023/05/26 08:16:48;;;;;;;15.80;8.80;;;21.40;1.00;;;;;;5013535;28;20571;-71
2023/05/26 08:19:14;;;;;;;13.80;9.10;;;21.80;1.00;;;;;;5016925;28;20446;-70
2023/05/26 08:21:39;;;;;;;13.10;9.17;;;22.00;1.00;;;;;;5018173;28;20193;-71
2023/05/26 08:24:05;;;;;;;13.70;8.90;;;22.20;1.00;;;;;;5017381;28;20236;-72
2023/05/26 08:26:31;;;;;;;14.70;9.67;;;22.20;1.00;;;;;;5016716;28;20220;-72
2023/05/26 08:28:56;;;;;;;14.30;9.43;;;22.40;1.00;;;;;;5016127;28;20177;-73
2023/05/26 08:31:22;;;;;;;13.50;9.10;;;22.50;1.00;;;;;;5015667;28;20281;-72
2023/05/26 08:33:47;;;;;;;12.43;8.90;;;22.60;1.00;;;;;;5019474;28;20185;-71
2023/05/26 08:36:13;;;;;;;15.03;9.57;;;22.90;1.00;;;;;;5017982;28;20201;-71
2023/05/26 08:38:38;;;;;;;13.80;8.40;;;23.00;1.00;;;;;;5022520;28;20177;-72
2023/05/26 08:41:05;;;;;;;16.70;8.87;;;23.20;1.00;;;;;;5024158;28;20674;-72
2023/05/26 08:43:43;;;;;;;13.60;8.43;;;23.40;1.00;;;;;;5020265;28;20412;-72
2023/05/26 08:46:11;;;;;;;15.50;8.83;;;23.80;1.00;;;;;;5017327;28;20876;-71
2023/05/26 08:48:39;;;;;;;13.00;8.73;;;23.80;1.00;;;;;;5024450;28;20432;-72
2023/05/26 08:51:08;;;;;;;14.87;9.63;;;24.00;1.00;;;;;;5018285;28;20465;-72
2023/05/26 08:53:33;;;;;;;13.53;9.10;;;24.20;1.00;;;;;;5023005;28;20450;-72
2023/05/26 08:56:00;;;;;;;16.20;8.80;;;24.90;1.00;;;;;;5018102;28;21385;-72
2023/05/26 08:58:26;;;;;;;15.50;9.20;;;25.80;1.00;;;;;;5024281;28;20239;-73
2023/05/26 09:00:52;;;;;;;11.93;8.20;;;27.00;1.00;;;;;;5013755;28;21030;-72
2023/05/26 09:03:18;;;;;;;13.53;8.63;;;28.10;1.00;;;;;;5010419;28;20483;-72
2023/05/26 09:05:45;;;;;;;14.77;8.20;;;29.40;1.00;;;;;;5041321;23;20228;-73
2023/05/26 09:08:14;;;;;;;13.73;8.60;;;29.40;1.00;;;;;;5012359;28;20205;-74
2023/05/26 09:10:40;;;;;;;15.23;8.65;;;30.00;1.00;;;;;;5016688;28;20210;-74
2023/05/26 09:13:06;;;;;;;11.38;7.85;;;30.30;1.00;;;;;;5006539;28;20181;-73
2023/05/26 09:15:32;;;;;;;14.40;7.65;;;30.70;1.00;;;;;;5008571;28;20971;-74
2023/05/26 09:18:03;;;;;;;13.50;7.95;;;31.30;1.00;;;;;;4999398;28;20214;-73
2023/05/26 09:20:29;;;;;;;11.18;8.13;;;31.60;1.00;;;;;;4995315;28;20178;-74
2023/05/26 09:22:58;;;;;;;16.65;8.05;;;32.10;1.00;;;;;;4993293;28;20182;-74
2023/05/26 09:25:44;;;;;;;11.00;7.90;;;32.70;1.00;;;;;;4995486;28;20653;-74
2023/05/26 09:28:12;;;;;;;12.52;8.18;;;32.80;1.00;;;;;;4993260;28;20229;-73
2023/05/26 09:30:43;;;;;;;12.45;7.63;;;32.00;1.00;;;;;;4992213;28;20597;-74
2023/05/26 09:33:26;;;;;;;16.38;8.43;;;31.70;1.00;;;;;;5001663;28;20236;-74
2023/05/26 09:35:52;;;;;;;17.70;7.63;;;33.00;1.00;;;;;;5002501;28;20203;-74
2023/05/26 09:38:19;;;;;;;12.95;7.50;;;33.10;1.00;;;;;;5000002;28;20187;-74
2023/05/26 09:40:47;;;;;;;10.93;7.30;;;33.30;1.00;;;;;;4995101;28;20678;-74
2023/05/26 09:43:18;;;;;;;11.85;8.05;;;33.60;1.00;;;;;;4995929;28;20205;-74
2023/05/26 09:45:43;;;;;;;9.27;7.22;;;34.10;1.00;;;;;;4993455;28;20652;-74
2023/05/26 09:48:10;;;;;;;12.85;7.03;;;34.00;1.00;;;;;;4998939;28;20213;-74
2023/05/26 09:50:37;;;;;;;13.38;6.88;;;34.00;1.00;;;;;;4994961;28;20216;-74
2023/05/26 09:53:05;;;;;;;14.35;7.65;;;34.10;1.00;;;;;;4997678;28;20206;-74
2023/05/26 09:55:31;;;;;;;12.50;7.13;;;33.80;1.00;;;;;;4998640;28;20283;-73
2023/05/26 09:58:05;;;;;;;11.20;6.95;;;33.50;1.00;;;;;;4989665;28;20198;-73
2023/05/26 10:00:34;;;;;;;16.45;7.30;;;34.20;1.00;;;;;;4992425;28;20300;-74
2023/05/26 10:03:03;;;;;;;11.20;7.00;;;34.50;1.00;;;;;;4989783;28;20672;-74
2023/05/26 10:05:30;;;;;;;12.02;6.78;;;34.40;1.00;;;;;;4986967;28;20525;-74
2023/05/26 10:07:56;;;;;;;22.05;7.03;;;34.10;1.00;;;;;;4993201;28;20230;-74
2023/05/26 10:10:23;;;;;;;11.55;7.18;;;33.60;1.00;;;;;;4990932;28;20244;-73
2023/05/26 10:12:49;;;;;;;11.73;6.70;;;33.40;1.00;;;;;;4988372;28;20187;-74
2023/05/26 10:15:15;;;;;;;9.30;6.90;;;33.60;1.00;;;;;;4991389;28;20249;-74
2023/05/26 10:17:42;;;;;;;10.90;6.90;;;34.20;1.00;;;;;;4995562;28;20199;-75
2023/05/26 10:20:08;;;;;;;11.40;6.45;;;34.50;1.00;;;;;;4996038;28;20196;-74
2023/05/26 10:22:50;;;;;;;9.90;6.80;;;35.10;1.00;;;;;;4999231;28;20195;-74
2023/05/26 10:25:19;;;;;;;11.32;6.63;;;35.70;1.00;;;;;;4994951;28;20213;-75
2023/05/26 10:28:06;;;;;;;7.95;6.32;;;35.90;1.00;;;;;;4992483;28;20210;-75
2023/05/26 10:30:32;;;;;;;16.05;6.22;;;35.90;1.00;;;;;;4990635;28;20205;-74
2023/05/26 10:33:08;;;;;;;11.23;6.07;;;35.50;1.00;;;;;;4992429;28;20273;-74
2023/05/26 10:35:34;;;;;;;13.20;6.47;;;35.70;1.00;;;;;;4986349;28;21185;-74
2023/05/26 10:38:02;;;;;;;11.13;7.18;;;36.10;1.00;;;;;;4989023;28;20202;-74
2023/05/26 10:40:37;;;;;;;9.30;6.40;;;36.20;1.00;;;;;;4994549;28;20269;-74
2023/05/26 10:43:23;;;;;;;8.90;5.55;;;36.50;1.00;;;;;;4996688;28;20177;-74
2023/05/26 10:46:01;;;;;;;8.95;5.63;;;36.90;1.00;;;;;;4993095;28;20191;-74
2023/05/26 10:48:56;;;;;;;9.32;6.03;;;37.00;1.00;;;;;;4998704;28;20737;-74
2023/05/26 10:51:29;;;;;;;11.18;5.85;;;36.80;1.00;;;;;;4993397;28;20210;-74
2023/05/26 10:53:56;;;;;;;9.18;5.63;;;36.70;1.00;;;;;;4986261;28;20202;-74
2023/05/26 10:56:35;;;;;;;7.45;5.47;;;37.40;1.00;;;;;;4988484;28;20202;-74
2023/05/26 10:59:02;;;;;;;11.02;6.00;;;37.70;1.00;;;;;;5000079;28;20194;-73
2023/05/26 11:01:30;;;;;;;8.68;6.13;;;38.00;1.00;;;;;;4994019;28;20189;-74
2023/05/26 11:03:57;;;;;;;10.07;5.75;;;37.10;1.00;;;;;;4995244;28;20194;-75
2023/05/26 11:06:56;;;;;;;9.98;6.20;;;36.50;1.00;;;;;;4992148;28;20273;-74
2023/05/26 11:09:22;;;;;;;9.48;5.90;;;36.50;1.00;;;;;;4991635;28;20182;-72
2023/05/26 11:11:59;;;;;;;8.10;5.32;;;36.00;1.00;;;;;;4994870;28;20198;-73
2023/05/26 11:14:33;;;;;;;7.60;5.32;;;36.60;1.00;;;;;;4991022;28;20456;-74
2023/05/26 11:17:04;;;;;;;12.02;5.80;;;37.90;1.00;;;;;;4993171;28;20218;-73
2023/05/26 11:19:35;;;;;;;11.93;5.60;;;38.20;1.00;;;;;;4988809;28;20190;-73
2023/05/26 11:22:04;;;;;;;8.05;5.55;;;38.80;1.00;;;;;;4989355;28;20266;-73
2023/05/26 11:24:31;;;;;;;9.85;5.30;;;38.20;1.00;;;;;;5000452;28;20190;-73
2023/05/26 11:26:59;;;;;;;11.70;5.22;;;38.10;1.00;;;;;;4991632;28;20734;-74
2023/05/26 11:29:25;;;;;;;9.85;5.63;;;38.50;1.00;;;;;;4988528;28;20273;-73
2023/05/26 11:31:51;;;;;;;8.18;5.40;;;39.00;1.00;;;;;;4990526;28;20204;-74
2023/05/26 11:34:17;;;;;;;7.72;5.22;;;39.30;1.00;;;;;;4996215;28;20182;-74
2023/05/26 11:36:47;;;;;;;10.75;5.50;;;38.40;1.00;;;;;;4996549;28;20261;-73
2023/05/26 11:39:13;;;;;;;7.03;5.43;;;38.70;1.00;;;;;;4998815;28;20596;-74
2023/05/26 11:41:38;;;;;;;7.85;5.70;;;39.00;1.00;;;;;;4995174;28;20216;-73
2023/05/26 11:44:12;;;;;;;9.15;6.15;;;38.50;1.00;;;;;;4992559;28;20665;-73
2023/05/26 11:46:39;;;;;;;11.95;5.60;;;37.90;1.00;;;;;;4995243;28;20228;-73
2023/05/26 11:49:10;;;;;;;10.18;5.70;;;37.80;1.00;;;;;;4993362;28;20670;-73
2023/05/26 11:51:36;;;;;;;8.32;5.20;;;37.70;1.00;;;;;;4993955;28;20217;-74
2023/05/26 11:54:08;;;;;;;7.72;5.53;;;37.90;1.00;;;;;;4992521;28;20255;-72
2023/05/26 11:56:35;;;;;;;8.23;5.50;;;38.10;1.00;;;;;;4989318;28;20206;-73
2023/05/26 11:59:01;;;;;;;7.93;5.57;;;38.70;1.00;;;;;;4990475;28;20265;-73
2023/05/26 12:01:28;;;;;;;7.88;5.38;;;39.30;1.00;;;;;;4989817;28;20194;-73
2023/05/26 12:03:56;;;;;;;8.07;5.28;;;39.50;1.00;;;;;;4992249;28;20684;-72
2023/05/26 12:06:24;;;;;;;7.78;5.00;;;38.70;1.00;;;;;;4986681;28;20214;-73
2023/05/26 12:08:51;;;;;;;9.82;5.53;;;38.60;1.00;;;;;;4991280;28;20210;-72
2023/05/26 12:11:21;;;;;;;6.60;4.95;;;39.00;1.00;;;;;;4990620;28;20205;-73
2023/05/26 12:14:04;;;;;;;7.75;4.75;;;39.10;1.00;;;;;;4993879;28;20185;-72
2023/05/26 12:16:35;;;;;;;9.80;5.63;;;39.60;1.00;;;;;;4982460;28;20202;-72
2023/05/26 12:19:03;;;;;;;8.05;5.25;;;39.90;1.00;;;;;;4991859;28;20178;-73
2023/05/26 12:21:31;;;;;;;6.78;4.80;;;39.60;1.00;;;;;;4994281;28;20820;-73
2023/05/26 12:23:58;;;;;;;11.02;5.50;;;39.90;1.00;;;;;;4996106;28;20687;-72
2023/05/26 12:26:27;;;;;;;8.25;5.18;;;40.40;1.00;;;;;;4989759;28;20676;-72
2023/05/26 12:29:07;;;;;;;7.03;5.25;;;41.30;1.00;;;;;;4998926;28;20651;-73
2023/05/26 12:31:52;;;;;;;8.43;5.45;;;41.40;1.00;;;;;;4998445;28;20205;-72
2023/05/26 12:34:23;;;;;;;7.95;5.13;;;41.20;1.00;;;;;;4994194;28;20765;-72
2023/05/26 12:36:49;;;;;;;7.95;5.20;;;41.30;1.00;;;;;;4993005;28;20222;-73
2023/05/26 12:39:16;;;;;;;8.55;5.30;;;41.10;1.00;;;;;;4997235;28;20189;-73
2023/05/26 12:41:42;;;;;;;9.15;5.35;;;40.00;1.00;;;;;;4990968;28;20205;-73
2023/05/26 12:44:09;;;;;;;9.40;5.25;;;39.70;1.00;;;;;;4985212;28;20228;-73
2023/05/26 12:46:35;;;;;;;10.75;5.53;;;40.30;1.00;;;;;;4987322;28;20285;-74
2023/05/26 12:49:01;;;;;;;9.27;5.28;;;40.20;1.00;;;;;;4987734;28;20667;-74